Hasil Kualifikasi MXGP 2019 Semarang Romain Febvre Semakin Di Depan




MXGP Semarang 2019 romain febvre

SemarMoto – Hai mas vroh…. Kualifikasi MXGP 2019 Semarang yang berlangsung pada Sabtu sore (13/7) berlangsung cukup seru. Pembalap Monster Energy Yamaha Factory yang bernama Romain Febvre #461 berhasil menjadi yang terdepan. Berikut hasil kualifikasi MXGP 2019 Semarang secara lengkap.

Cuaca di sirkuit BSB Mijen Semarang siang tadi cukup cerah tapi tidak terlalu menyengat seperti tahun lalu. Sehingga membuat para pembalap tidak terlalu terkuras fisiknya, hal tersebut diakui oleh beberapa pembalap. Romain Fabvre yang merupakan pembalap dari Monster Energy Yamaha Factory berhasil mencapai catatan lap terbaik 1 menit 50.724 detik. Sedangkan rekan satu tim nya yaitu Jeremy Seewer menempati urutan ke 6 dengan catatan waktu terbaik 1 menit 53.579 detik.

hasil kualifikasi MXGP 2019 Semarang

Dalam sesi wawancara Romain Fabvre mengatakan, “Semoga besok hari minggu, saya bisa tampil lebih baik lagi. Untuk cuaca dan lintasan, kami tidak mengalami masalah”. Untuk video wawancara eksklusif dengan Romain Fabvre saat di paddock, tapi belum selesai saya kerjakan. Mohon di maklumi yah!! Sekian informasi mengenai hasil kualifikasi MXGP 2019 Semarang, semoga bermanfaat.

Salam foging pistun motor teknologi jadul bin ngebul tapi gak ngibul.

qualifying race MXGP 2019 Semarang

Hasil Kualifikasi MXGP 2019 Semarang

MXGP – Qualifying Race – Classification

Pos Nr Rider Nat. Fed. Bike Time laps Diff. First Diff. Prev. Bestlaptime in lap Speed
1 461 Febvre, Romain FRA FFM Yamaha 24:18.499 12 0:00.000 0:00.000 1:50.724 6 56.2
2 259 Coldenhoff, Glenn NED KNMV KTM 24:27.564 12 0:09.065 0:09.065 1:51.476 3 55.8
3 243 Gajser, Tim SLO AMZS Honda 24:31.980 12 0:13.481 0:04.416 1:51.421 3 55.8
4 41 Jonass, Pauls LAT LAMSF Husqvarna 24:42.791 12 0:24.292 0:10.811 1:53.596 8 54.8
5 27 Jasikonis, Arminas LTU LMSF Husqvarna 24:43.495 12 0:24.996 0:00.704 1:53.446 3 54.8
6 91 Seewer, Jeremy SUI FMS Yamaha 24:46.301 12 0:27.802 0:02.806 1:53.579 5 54.8
7 89 Van Horebeek, Jeremy BEL FMB Honda 24:48.557 12 0:30.058 0:02.256 1:53.254 8 54.9
8 128 Monticelli, Ivo ITA FMI KTM 24:51.005 12 0:32.506 0:02.448 1:53.803 8 54.7
9 21 Paulin, Gautier FRA MCM Yamaha 24:59.767 12 0:41.268 0:08.762 1:54.045 9 54.6
10 4 Tonus, Arnaud SUI FMS Yamaha 25:15.689 12 0:57.190 0:15.922 1:54.461 3 54.4
11 189 Bogers, Brian NED KNMV Honda 25:25.960 12 1:07.461 0:10.271 1:55.127 3 54
12 99 Anstie, Max GBR ACU KTM 25:32.236 12 1:13.737 0:06.276 1:56.049 3 53.6
13 7 Leok, Tanel EST EMF Husqvarna 25:53.918 12 1:35.419 0:21.682 1:57.964 11 52.7
14 621 Lusbo, Andero EST EMF Husqvarna 26:16.728 12 1:58.229 0:22.810 1:59.559 6 52
15 336 Stewart, Lewis AUS IMI KTM 24:21.086 11 1 lap 1 lap 1:59.855 2 51.9
16 626 Milesevic, Joel AUS IMI KTM 25:14.608 11 1 lap 0:53.522 2:03.564 2 50.4
17 227 Coles, Adam AUS MA Husqvarna 25:33.393 11 1 lap 0:18.785 2:04.148 4 50.1
18 131 van Nobelen, Jordi NED IMI Husqvarna 24:52.476 10 2 laps 1 lap 2:12.357 8 47
19 251 Darias Vapanen, Bruno ESP RFME KTM 25:21.287 10 2 laps 0:28.811 2:06.702 1 49.1
20 110 Lazaroni, Aldi INA IMI Husqvarna 25:26.660 10 2 laps 0:05.373 2:16.291 3 45.6
21 162 Farhan Hendra, Farhrodjie INA IMI Husqvarna 25:30.483 10 2 laps 0:03.823 2:15.767 3 45.8
22 244 Nakpane, Madjade TOG IMI Husqvarna 25:47.152 10 2 laps 0:16.669 2:17.549 2 45.2

Be the first to comment

Leave a Reply

Alamat email Anda tidak akan dipublikasikan.


*


This site uses Akismet to reduce spam. Learn how your comment data is processed.